sensor_id;sensor_type;location;lat;lon;timestamp;temperature;humidity
13322;DHT22;6730;46.248;6.930;2023-02-12T00:00:40;3.00;93.00
13322;DHT22;6730;46.248;6.930;2023-02-12T00:03:06;3.00;93.00
13322;DHT22;6730;46.248;6.930;2023-02-12T00:05:32;2.90;93.40
13322;DHT22;6730;46.248;6.930;2023-02-12T00:07:58;2.70;93.80
13322;DHT22;6730;46.248;6.930;2023-02-12T00:10:24;2.70;94.20
13322;DHT22;6730;46.248;6.930;2023-02-12T00:12:52;2.60;94.50
13322;DHT22;6730;46.248;6.930;2023-02-12T00:15:19;2.50;94.40
13322;DHT22;6730;46.248;6.930;2023-02-12T00:17:44;2.50;94.10
13322;DHT22;6730;46.248;6.930;2023-02-12T00:20:10;2.50;94.00
13322;DHT22;6730;46.248;6.930;2023-02-12T00:22:36;2.90;93.80
13322;DHT22;6730;46.248;6.930;2023-02-12T00:25:02;3.20;93.30
13322;DHT22;6730;46.248;6.930;2023-02-12T00:27:27;3.00;93.50
13322;DHT22;6730;46.248;6.930;2023-02-12T00:29:53;2.90;94.00
13322;DHT22;6730;46.248;6.930;2023-02-12T00:32:19;2.90;94.20
13322;DHT22;6730;46.248;6.930;2023-02-12T00:34:47;3.10;93.80
13322;DHT22;6730;46.248;6.930;2023-02-12T00:37:14;3.20;93.50
13322;DHT22;6730;46.248;6.930;2023-02-12T00:39:40;3.10;94.10
13322;DHT22;6730;46.248;6.930;2023-02-12T00:42:06;3.10;94.00
13322;DHT22;6730;46.248;6.930;2023-02-12T00:44:32;3.20;93.70
13322;DHT22;6730;46.248;6.930;2023-02-12T00:46:57;3.00;94.30
13322;DHT22;6730;46.248;6.930;2023-02-12T00:49:30;2.80;94.50
13322;DHT22;6730;46.248;6.930;2023-02-12T00:52:00;2.70;94.70
13322;DHT22;6730;46.248;6.930;2023-02-12T00:54:27;2.70;94.70
13322;DHT22;6730;46.248;6.930;2023-02-12T00:56:54;3.00;94.40
13322;DHT22;6730;46.248;6.930;2023-02-12T00:59:23;2.90;94.10
13322;DHT22;6730;46.248;6.930;2023-02-12T01:01:50;3.00;94.00
13322;DHT22;6730;46.248;6.930;2023-02-12T01:04:17;3.00;93.90
13322;DHT22;6730;46.248;6.930;2023-02-12T01:06:43;3.30;93.60
13322;DHT22;6730;46.248;6.930;2023-02-12T01:09:09;3.30;93.50
13322;DHT22;6730;46.248;6.930;2023-02-12T01:11:36;3.20;93.50
13322;DHT22;6730;46.248;6.930;2023-02-12T01:14:04;3.00;93.80
13322;DHT22;6730;46.248;6.930;2023-02-12T01:16:30;3.10;93.80
13322;DHT22;6730;46.248;6.930;2023-02-12T01:18:58;3.20;93.30
13322;DHT22;6730;46.248;6.930;2023-02-12T01:21:29;3.20;93.60
13322;DHT22;6730;46.248;6.930;2023-02-12T01:23:57;3.00;93.90
13322;DHT22;6730;46.248;6.930;2023-02-12T01:26:23;2.90;94.10
13322;DHT22;6730;46.248;6.930;2023-02-12T01:28:52;3.20;93.70
13322;DHT22;6730;46.248;6.930;2023-02-12T01:31:23;3.20;93.70
13322;DHT22;6730;46.248;6.930;2023-02-12T01:33:51;2.80;94.30
13322;DHT22;6730;46.248;6.930;2023-02-12T01:36:18;2.50;94.90
13322;DHT22;6730;46.248;6.930;2023-02-12T01:38:43;2.50;94.90
13322;DHT22;6730;46.248;6.930;2023-02-12T01:41:16;2.50;94.50
13322;DHT22;6730;46.248;6.930;2023-02-12T01:43:42;2.40;94.70
13322;DHT22;6730;46.248;6.930;2023-02-12T01:46:10;2.30;94.70
13322;DHT22;6730;46.248;6.930;2023-02-12T01:48:42;2.40;94.60
13322;DHT22;6730;46.248;6.930;2023-02-12T01:51:12;2.50;94.50
13322;DHT22;6730;46.248;6.930;2023-02-12T01:53:49;2.70;94.60
13322;DHT22;6730;46.248;6.930;2023-02-12T01:56:16;2.80;94.50
13322;DHT22;6730;46.248;6.930;2023-02-12T01:58:43;3.10;93.90
13322;DHT22;6730;46.248;6.930;2023-02-12T02:01:16;3.00;93.90
13322;DHT22;6730;46.248;6.930;2023-02-12T02:03:44;2.60;94.60
13322;DHT22;6730;46.248;6.930;2023-02-12T02:06:23;2.50;94.90
13322;DHT22;6730;46.248;6.930;2023-02-12T02:08:52;2.40;94.90
13322;DHT22;6730;46.248;6.930;2023-02-12T02:11:17;2.60;94.80
13322;DHT22;6730;46.248;6.930;2023-02-12T02:14:01;2.70;94.70
13322;DHT22;6730;46.248;6.930;2023-02-12T02:31:24;2.80;94.50
13322;DHT22;6730;46.248;6.930;2023-02-12T02:33:55;3.00;94.20
13322;DHT22;6730;46.248;6.930;2023-02-12T02:39:24;3.40;93.50
13322;DHT22;6730;46.248;6.930;2023-02-12T02:44:45;2.80;94.30
13322;DHT22;6730;46.248;6.930;2023-02-12T02:47:13;2.30;95.00
13322;DHT22;6730;46.248;6.930;2023-02-12T02:49:45;2.30;95.10
13322;DHT22;6730;46.248;6.930;2023-02-12T02:52:17;2.50;94.90
13322;DHT22;6730;46.248;6.930;2023-02-12T02:54:48;2.80;94.70
13322;DHT22;6730;46.248;6.930;2023-02-12T02:57:22;2.80;94.60
13322;DHT22;6730;46.248;6.930;2023-02-12T02:59:55;2.60;94.90
13322;DHT22;6730;46.248;6.930;2023-02-12T03:02:27;2.70;94.80
13322;DHT22;6730;46.248;6.930;2023-02-12T03:04:57;2.90;94.40
13322;DHT22;6730;46.248;6.930;2023-02-12T03:07:31;3.00;94.00
13322;DHT22;6730;46.248;6.930;2023-02-12T03:10:14;3.10;93.80
13322;DHT22;6730;46.248;6.930;2023-02-12T03:12:58;2.60;94.70
13322;DHT22;6730;46.248;6.930;2023-02-12T03:16:03;2.20;95.20
13322;DHT22;6730;46.248;6.930;2023-02-12T03:18:28;2.00;95.50
13322;DHT22;6730;46.248;6.930;2023-02-12T03:21:09;2.10;95.50
13322;DHT22;6730;46.248;6.930;2023-02-12T03:23:50;2.50;94.90
13322;DHT22;6730;46.248;6.930;2023-02-12T03:27:01;2.70;94.80
13322;DHT22;6730;46.248;6.930;2023-02-12T03:29:31;2.30;95.10
13322;DHT22;6730;46.248;6.930;2023-02-12T03:34:45;1.80;96.10
13322;DHT22;6730;46.248;6.930;2023-02-12T03:40:06;1.90;96.30
13322;DHT22;6730;46.248;6.930;2023-02-12T03:48:10;2.10;95.60
13322;DHT22;6730;46.248;6.930;2023-02-12T03:50:45;2.60;94.70
13322;DHT22;6730;46.248;6.930;2023-02-12T03:53:12;2.30;95.60
13322;DHT22;6730;46.248;6.930;2023-02-12T03:55:42;2.00;95.90
13322;DHT22;6730;46.248;6.930;2023-02-12T03:58:12;1.90;96.00
13322;DHT22;6730;46.248;6.930;2023-02-12T04:00:44;1.90;96.00
13322;DHT22;6730;46.248;6.930;2023-02-12T04:03:10;2.00;95.80
13322;DHT22;6730;46.248;6.930;2023-02-12T04:05:36;2.30;95.50
13322;DHT22;6730;46.248;6.930;2023-02-12T04:08:04;2.60;94.80
13322;DHT22;6730;46.248;6.930;2023-02-12T04:19:01;2.80;94.40
13322;DHT22;6730;46.248;6.930;2023-02-12T04:24:21;2.70;94.80
13322;DHT22;6730;46.248;6.930;2023-02-12T04:29:56;2.40;95.00
13322;DHT22;6730;46.248;6.930;2023-02-12T04:37:28;3.00;93.90
13322;DHT22;6730;46.248;6.930;2023-02-12T04:39:55;3.10;93.90
13322;DHT22;6730;46.248;6.930;2023-02-12T04:42:22;2.90;94.20
13322;DHT22;6730;46.248;6.930;2023-02-12T04:44:48;2.80;94.30
13322;DHT22;6730;46.248;6.930;2023-02-12T04:47:15;2.80;94.20
13322;DHT22;6730;46.248;6.930;2023-02-12T04:49:41;2.80;94.30
13322;DHT22;6730;46.248;6.930;2023-02-12T04:52:07;2.80;94.40
13322;DHT22;6730;46.248;6.930;2023-02-12T04:54:33;2.40;95.10
13322;DHT22;6730;46.248;6.930;2023-02-12T04:56:59;2.20;95.40
13322;DHT22;6730;46.248;6.930;2023-02-12T04:59:24;2.10;95.30
13322;DHT22;6730;46.248;6.930;2023-02-12T05:01:50;2.20;95.20
13322;DHT22;6730;46.248;6.930;2023-02-12T05:04:16;2.50;95.00
13322;DHT22;6730;46.248;6.930;2023-02-12T05:06:43;2.60;94.60
13322;DHT22;6730;46.248;6.930;2023-02-12T05:09:13;2.80;94.30
13322;DHT22;6730;46.248;6.930;2023-02-12T05:11:39;3.00;94.00
13322;DHT22;6730;46.248;6.930;2023-02-12T05:14:05;3.10;93.90
13322;DHT22;6730;46.248;6.930;2023-02-12T05:16:30;3.10;93.80
13322;DHT22;6730;46.248;6.930;2023-02-12T05:18:56;2.80;94.70
13322;DHT22;6730;46.248;6.930;2023-02-12T05:21:21;2.60;94.90
13322;DHT22;6730;46.248;6.930;2023-02-12T05:23:47;3.00;94.30
13322;DHT22;6730;46.248;6.930;2023-02-12T05:26:16;2.70;94.60
13322;DHT22;6730;46.248;6.930;2023-02-12T05:28:42;2.20;95.40
13322;DHT22;6730;46.248;6.930;2023-02-12T05:31:09;1.90;96.00
13322;DHT22;6730;46.248;6.930;2023-02-12T05:33:35;1.60;96.10
13322;DHT22;6730;46.248;6.930;2023-02-12T05:36:05;1.60;96.20
13322;DHT22;6730;46.248;6.930;2023-02-12T05:38:32;1.70;96.00
13322;DHT22;6730;46.248;6.930;2023-02-12T05:41:03;1.60;96.30
13322;DHT22;6730;46.248;6.930;2023-02-12T05:43:29;1.70;96.40
13322;DHT22;6730;46.248;6.930;2023-02-12T05:45:58;1.50;96.60
13322;DHT22;6730;46.248;6.930;2023-02-12T05:48:23;1.60;96.60
13322;DHT22;6730;46.248;6.930;2023-02-12T05:50:49;1.70;96.40
13322;DHT22;6730;46.248;6.930;2023-02-12T05:53:15;1.80;96.00
13322;DHT22;6730;46.248;6.930;2023-02-12T05:55:40;1.70;96.50
13322;DHT22;6730;46.248;6.930;2023-02-12T05:58:06;1.80;96.10
13322;DHT22;6730;46.248;6.930;2023-02-12T06:00:31;1.80;96.00
13322;DHT22;6730;46.248;6.930;2023-02-12T06:02:57;1.80;96.30
13322;DHT22;6730;46.248;6.930;2023-02-12T06:05:23;1.60;96.50
13322;DHT22;6730;46.248;6.930;2023-02-12T06:07:48;1.50;96.90
13322;DHT22;6730;46.248;6.930;2023-02-12T06:10:14;1.40;97.10
13322;DHT22;6730;46.248;6.930;2023-02-12T06:12:40;1.70;96.60
13322;DHT22;6730;46.248;6.930;2023-02-12T06:15:05;2.00;96.00
13322;DHT22;6730;46.248;6.930;2023-02-12T06:17:33;2.10;95.70
13322;DHT22;6730;46.248;6.930;2023-02-12T06:19:59;2.10;95.70
13322;DHT22;6730;46.248;6.930;2023-02-12T06:22:24;2.30;95.20
13322;DHT22;6730;46.248;6.930;2023-02-12T06:24:50;2.60;94.90
13322;DHT22;6730;46.248;6.930;2023-02-12T06:27:15;2.20;95.50
13322;DHT22;6730;46.248;6.930;2023-02-12T06:29:41;2.30;95.40
13322;DHT22;6730;46.248;6.930;2023-02-12T06:32:07;2.40;95.20
13322;DHT22;6730;46.248;6.930;2023-02-12T06:34:33;2.40;95.20
13322;DHT22;6730;46.248;6.930;2023-02-12T06:36:59;2.30;95.20
13322;DHT22;6730;46.248;6.930;2023-02-12T06:39:24;2.70;94.80
13322;DHT22;6730;46.248;6.930;2023-02-12T06:41:50;2.70;94.60
13322;DHT22;6730;46.248;6.930;2023-02-12T06:44:16;2.80;94.60
13322;DHT22;6730;46.248;6.930;2023-02-12T06:46:41;2.50;95.50
13322;DHT22;6730;46.248;6.930;2023-02-12T06:49:07;2.20;95.90
13322;DHT22;6730;46.248;6.930;2023-02-12T06:51:35;1.90;96.40
13322;DHT22;6730;46.248;6.930;2023-02-12T06:54:04;1.80;96.30
13322;DHT22;6730;46.248;6.930;2023-02-12T06:56:30;1.70;96.40
13322;DHT22;6730;46.248;6.930;2023-02-12T06:58:57;1.50;96.90
13322;DHT22;6730;46.248;6.930;2023-02-12T07:01:25;1.40;97.10
13322;DHT22;6730;46.248;6.930;2023-02-12T07:03:56;1.20;97.50
13322;DHT22;6730;46.248;6.930;2023-02-12T07:06:24;1.30;97.50
13322;DHT22;6730;46.248;6.930;2023-02-12T07:08:50;1.30;97.70
13322;DHT22;6730;46.248;6.930;2023-02-12T07:11:16;1.40;97.90
13322;DHT22;6730;46.248;6.930;2023-02-12T07:13:43;1.80;96.50
13322;DHT22;6730;46.248;6.930;2023-02-12T07:16:11;2.10;96.40
13322;DHT22;6730;46.248;6.930;2023-02-12T07:18:38;2.40;96.10
13322;DHT22;6730;46.248;6.930;2023-02-12T07:21:05;2.50;95.30
13322;DHT22;6730;46.248;6.930;2023-02-12T07:23:32;2.60;95.30
13322;DHT22;6730;46.248;6.930;2023-02-12T07:26:03;2.60;95.30
13322;DHT22;6730;46.248;6.930;2023-02-12T07:28:29;2.50;96.00
13322;DHT22;6730;46.248;6.930;2023-02-12T07:31:08;2.70;95.20
13322;DHT22;6730;46.248;6.930;2023-02-12T07:33:35;2.30;95.80
13322;DHT22;6730;46.248;6.930;2023-02-12T07:36:01;2.10;96.40
13322;DHT22;6730;46.248;6.930;2023-02-12T07:38:27;1.80;96.90
13322;DHT22;6730;46.248;6.930;2023-02-12T07:40:53;2.20;98.50
13322;DHT22;6730;46.248;6.930;2023-02-12T07:43:18;2.90;98.30
13322;DHT22;6730;46.248;6.930;2023-02-12T07:45:44;4.10;98.60
13322;DHT22;6730;46.248;6.930;2023-02-12T07:48:10;5.20;96.60
13322;DHT22;6730;46.248;6.930;2023-02-12T07:50:37;5.90;97.20
13322;DHT22;6730;46.248;6.930;2023-02-12T07:53:02;6.20;95.70
13322;DHT22;6730;46.248;6.930;2023-02-12T07:55:28;6.70;94.30
13322;DHT22;6730;46.248;6.930;2023-02-12T07:57:53;6.90;93.10
13322;DHT22;6730;46.248;6.930;2023-02-12T08:00:19;6.60;94.10
13322;DHT22;6730;46.248;6.930;2023-02-12T08:02:51;7.20;93.90
13322;DHT22;6730;46.248;6.930;2023-02-12T08:05:17;7.90;92.60
13322;DHT22;6730;46.248;6.930;2023-02-12T08:07:43;8.40;91.60
13322;DHT22;6730;46.248;6.930;2023-02-12T08:10:08;8.50;91.70
13322;DHT22;6730;46.248;6.930;2023-02-12T08:12:34;8.50;90.70
13322;DHT22;6730;46.248;6.930;2023-02-12T08:15:00;8.10;90.60
13322;DHT22;6730;46.248;6.930;2023-02-12T08:17:25;8.10;91.60
13322;DHT22;6730;46.248;6.930;2023-02-12T08:19:51;8.40;91.30
13322;DHT22;6730;46.248;6.930;2023-02-12T08:22:17;8.80;91.30
13322;DHT22;6730;46.248;6.930;2023-02-12T08:24:43;9.00;90.70
13322;DHT22;6730;46.248;6.930;2023-02-12T08:27:09;9.00;90.10
13322;DHT22;6730;46.248;6.930;2023-02-12T08:29:34;8.40;90.70
13322;DHT22;6730;46.248;6.930;2023-02-12T08:32:02;8.90;91.20
13322;DHT22;6730;46.248;6.930;2023-02-12T08:34:30;8.50;89.50
13322;DHT22;6730;46.248;6.930;2023-02-12T08:36:56;8.00;90.60
13322;DHT22;6730;46.248;6.930;2023-02-12T08:39:24;8.10;90.00
13322;DHT22;6730;46.248;6.930;2023-02-12T08:41:50;8.90;90.10
13322;DHT22;6730;46.248;6.930;2023-02-12T08:44:16;9.20;88.30
13322;DHT22;6730;46.248;6.930;2023-02-12T08:46:47;9.40;87.00
13322;DHT22;6730;46.248;6.930;2023-02-12T08:49:17;10.10;89.80
13322;DHT22;6730;46.248;6.930;2023-02-12T08:51:45;10.30;86.60
13322;DHT22;6730;46.248;6.930;2023-02-12T08:54:18;9.40;87.60
13322;DHT22;6730;46.248;6.930;2023-02-12T08:56:44;9.00;90.40
13322;DHT22;6730;46.248;6.930;2023-02-12T08:59:11;9.80;87.80
13322;DHT22;6730;46.248;6.930;2023-02-12T09:01:38;9.60;88.40
13322;DHT22;6730;46.248;6.930;2023-02-12T09:04:05;9.70;88.70
13322;DHT22;6730;46.248;6.930;2023-02-12T09:06:33;9.70;86.70
13322;DHT22;6730;46.248;6.930;2023-02-12T09:08:59;9.40;88.50
13322;DHT22;6730;46.248;6.930;2023-02-12T09:11:27;10.00;89.40
13322;DHT22;6730;46.248;6.930;2023-02-12T09:14:01;10.10;87.10
13322;DHT22;6730;46.248;6.930;2023-02-12T09:16:31;9.90;87.50
13322;DHT22;6730;46.248;6.930;2023-02-12T09:18:57;9.90;87.20
13322;DHT22;6730;46.248;6.930;2023-02-12T09:21:23;10.60;86.20
13322;DHT22;6730;46.248;6.930;2023-02-12T09:23:49;10.80;86.90
13322;DHT22;6730;46.248;6.930;2023-02-12T09:26:18;10.90;84.10
13322;DHT22;6730;46.248;6.930;2023-02-12T09:28:48;10.80;87.10
13322;DHT22;6730;46.248;6.930;2023-02-12T09:31:17;11.00;85.00
13322;DHT22;6730;46.248;6.930;2023-02-12T09:33:45;11.00;85.00
13322;DHT22;6730;46.248;6.930;2023-02-12T09:36:13;10.40;87.40
13322;DHT22;6730;46.248;6.930;2023-02-12T09:38:39;10.20;85.60
13322;DHT22;6730;46.248;6.930;2023-02-12T09:43:57;10.20;88.00
13322;DHT22;6730;46.248;6.930;2023-02-12T09:49:10;10.20;86.40
13322;DHT22;6730;46.248;6.930;2023-02-12T09:51:39;9.50;87.60
13322;DHT22;6730;46.248;6.930;2023-02-12T09:54:15;9.20;90.30
13322;DHT22;6730;46.248;6.930;2023-02-12T09:56:48;10.10;88.60
13322;DHT22;6730;46.248;6.930;2023-02-12T10:01:49;10.20;88.40
13322;DHT22;6730;46.248;6.930;2023-02-12T10:04:14;10.40;88.90
13322;DHT22;6730;46.248;6.930;2023-02-12T10:14:54;10.20;87.80
13322;DHT22;6730;46.248;6.930;2023-02-12T10:17:53;10.60;87.30
13322;DHT22;6730;46.248;6.930;2023-02-12T10:23:29;11.40;84.70
13322;DHT22;6730;46.248;6.930;2023-02-12T10:26:27;11.40;84.90
13322;DHT22;6730;46.248;6.930;2023-02-12T10:29:03;10.30;86.70
13322;DHT22;6730;46.248;6.930;2023-02-12T10:31:37;9.70;87.80
13322;DHT22;6730;46.248;6.930;2023-02-12T10:34:36;10.10;87.90
13322;DHT22;6730;46.248;6.930;2023-02-12T10:37:13;10.30;87.00
13322;DHT22;6730;46.248;6.930;2023-02-12T10:39:46;10.80;89.50
13322;DHT22;6730;46.248;6.930;2023-02-12T10:43:01;11.20;85.80
13322;DHT22;6730;46.248;6.930;2023-02-12T10:45:14;10.40;86.30
13322;DHT22;6730;46.248;6.930;2023-02-12T10:47:41;10.00;90.00
13322;DHT22;6730;46.248;6.930;2023-02-12T10:53:20;10.30;87.10
13322;DHT22;6730;46.248;6.930;2023-02-12T10:55:46;10.80;87.30
13322;DHT22;6730;46.248;6.930;2023-02-12T10:58:19;10.30;86.00
13322;DHT22;6730;46.248;6.930;2023-02-12T11:00:45;10.10;88.50
13322;DHT22;6730;46.248;6.930;2023-02-12T11:05:40;10.60;87.30
13322;DHT22;6730;46.248;6.930;2023-02-12T11:08:07;9.70;86.60
13322;DHT22;6730;46.248;6.930;2023-02-12T11:10:38;9.30;89.40
13322;DHT22;6730;46.248;6.930;2023-02-12T11:13:05;9.00;90.30
13322;DHT22;6730;46.248;6.930;2023-02-12T11:15:45;8.90;89.80
13322;DHT22;6730;46.248;6.930;2023-02-12T11:18:22;9.10;89.90
13322;DHT22;6730;46.248;6.930;2023-02-12T11:23:41;9.80;90.50
13322;DHT22;6730;46.248;6.930;2023-02-12T11:28:53;8.80;91.00
13322;DHT22;6730;46.248;6.930;2023-02-12T11:36:43;9.10;89.90
13322;DHT22;6730;46.248;6.930;2023-02-12T11:39:23;9.10;90.70
13322;DHT22;6730;46.248;6.930;2023-02-12T11:41:56;9.90;90.30
13322;DHT22;6730;46.248;6.930;2023-02-12T11:44:29;8.90;90.70
13322;DHT22;6730;46.248;6.930;2023-02-12T11:47:02;9.30;91.70
13322;DHT22;6730;46.248;6.930;2023-02-12T11:49:38;9.20;91.30
13322;DHT22;6730;46.248;6.930;2023-02-12T11:52:05;8.90;90.80
13322;DHT22;6730;46.248;6.930;2023-02-12T11:54:39;8.20;91.30
13322;DHT22;6730;46.248;6.930;2023-02-12T11:57:06;8.70;91.90
13322;DHT22;6730;46.248;6.930;2023-02-12T11:59:42;8.80;91.60
13322;DHT22;6730;46.248;6.930;2023-02-12T12:04:42;8.70;91.20
13322;DHT22;6730;46.248;6.930;2023-02-12T12:07:18;9.00;91.50
13322;DHT22;6730;46.248;6.930;2023-02-12T12:09:50;9.00;90.90
13322;DHT22;6730;46.248;6.930;2023-02-12T12:12:32;8.80;91.80
13322;DHT22;6730;46.248;6.930;2023-02-12T12:15:06;8.80;91.70
13322;DHT22;6730;46.248;6.930;2023-02-12T12:17:59;8.10;92.10
13322;DHT22;6730;46.248;6.930;2023-02-12T12:20:53;7.90;92.10
13322;DHT22;6730;46.248;6.930;2023-02-12T12:26:11;8.60;92.20
13322;DHT22;6730;46.248;6.930;2023-02-12T12:29:09;8.40;92.00
13322;DHT22;6730;46.248;6.930;2023-02-12T12:31:39;8.40;92.70
13322;DHT22;6730;46.248;6.930;2023-02-12T12:34:12;8.40;92.60
13322;DHT22;6730;46.248;6.930;2023-02-12T13:12:42;7.30;94.10
13322;DHT22;6730;46.248;6.930;2023-02-12T13:15:18;7.30;94.40
13322;DHT22;6730;46.248;6.930;2023-02-12T13:18:19;6.80;94.90
13322;DHT22;6730;46.248;6.930;2023-02-12T13:26:48;6.80;95.20
13322;DHT22;6730;46.248;6.930;2023-02-12T13:29:37;6.90;95.50
13322;DHT22;6730;46.248;6.930;2023-02-12T13:32:04;6.90;95.80
13322;DHT22;6730;46.248;6.930;2023-02-12T13:34:33;7.00;95.20
13322;DHT22;6730;46.248;6.930;2023-02-12T13:37:03;7.20;94.90
13322;DHT22;6730;46.248;6.930;2023-02-12T13:39:34;6.90;95.20
13322;DHT22;6730;46.248;6.930;2023-02-12T13:42:20;6.90;95.90
13322;DHT22;6730;46.248;6.930;2023-02-12T13:47:51;6.40;95.90
13322;DHT22;6730;46.248;6.930;2023-02-12T13:50:36;6.30;96.70
13322;DHT22;6730;46.248;6.930;2023-02-12T14:01:12;6.60;96.70
13322;DHT22;6730;46.248;6.930;2023-02-12T14:03:40;6.60;96.20
13322;DHT22;6730;46.248;6.930;2023-02-12T14:06:16;6.70;96.70
13322;DHT22;6730;46.248;6.930;2023-02-12T14:08:45;6.80;96.60
13322;DHT22;6730;46.248;6.930;2023-02-12T14:11:14;6.50;96.40
13322;DHT22;6730;46.248;6.930;2023-02-12T14:13:57;6.50;96.90
13322;DHT22;6730;46.248;6.930;2023-02-12T14:22:00;6.40;96.30
13322;DHT22;6730;46.248;6.930;2023-02-12T14:27:03;6.40;96.40
13322;DHT22;6730;46.248;6.930;2023-02-12T14:29:30;6.20;96.60
13322;DHT22;6730;46.248;6.930;2023-02-12T14:31:55;6.30;96.70
13322;DHT22;6730;46.248;6.930;2023-02-12T14:36:56;6.80;97.10
13322;DHT22;6730;46.248;6.930;2023-02-12T14:39:34;7.10;95.90
13322;DHT22;6730;46.248;6.930;2023-02-12T14:44:47;7.20;95.90
13322;DHT22;6730;46.248;6.930;2023-02-12T14:49:59;7.10;95.50
13322;DHT22;6730;46.248;6.930;2023-02-12T14:52:28;6.60;96.30
13322;DHT22;6730;46.248;6.930;2023-02-12T14:55:00;6.30;96.40
13322;DHT22;6730;46.248;6.930;2023-02-12T14:57:30;6.20;96.60
13322;DHT22;6730;46.248;6.930;2023-02-12T14:59:58;6.00;96.40
13322;DHT22;6730;46.248;6.930;2023-02-12T15:02:28;6.10;96.80
13322;DHT22;6730;46.248;6.930;2023-02-12T15:05:01;6.40;97.60
13322;DHT22;6730;46.248;6.930;2023-02-12T15:07:34;6.90;97.30
13322;DHT22;6730;46.248;6.930;2023-02-12T15:10:05;7.50;96.80
13322;DHT22;6730;46.248;6.930;2023-02-12T15:12:39;7.70;95.20
13322;DHT22;6730;46.248;6.930;2023-02-12T15:15:26;7.80;95.50
13322;DHT22;6730;46.248;6.930;2023-02-12T15:18:21;8.00;95.60
13322;DHT22;6730;46.248;6.930;2023-02-12T15:23:42;8.40;95.00
13322;DHT22;6730;46.248;6.930;2023-02-12T15:26:14;8.10;94.90
13322;DHT22;6730;46.248;6.930;2023-02-12T15:28:41;8.10;95.20
13322;DHT22;6730;46.248;6.930;2023-02-12T15:31:08;8.20;95.00
13322;DHT22;6730;46.248;6.930;2023-02-12T15:33:39;8.30;94.70
13322;DHT22;6730;46.248;6.930;2023-02-12T15:36:08;8.20;95.00
13322;DHT22;6730;46.248;6.930;2023-02-12T15:38:37;8.30;94.90
13322;DHT22;6730;46.248;6.930;2023-02-12T15:41:04;8.40;94.40
13322;DHT22;6730;46.248;6.930;2023-02-12T15:43:33;8.50;94.50
13322;DHT22;6730;46.248;6.930;2023-02-12T15:46:01;8.50;94.60
13322;DHT22;6730;46.248;6.930;2023-02-12T15:48:30;8.60;94.30
13322;DHT22;6730;46.248;6.930;2023-02-12T15:51:08;8.60;94.00
13322;DHT22;6730;46.248;6.930;2023-02-12T15:53:35;8.40;94.60
13322;DHT22;6730;46.248;6.930;2023-02-12T15:56:03;7.90;94.90
13322;DHT22;6730;46.248;6.930;2023-02-12T15:58:39;7.60;95.20
13322;DHT22;6730;46.248;6.930;2023-02-12T16:01:06;7.60;95.10
13322;DHT22;6730;46.248;6.930;2023-02-12T16:03:35;7.60;95.20
13322;DHT22;6730;46.248;6.930;2023-02-12T16:06:09;7.50;95.30
13322;DHT22;6730;46.248;6.930;2023-02-12T16:08:36;7.30;95.40
13322;DHT22;6730;46.248;6.930;2023-02-12T16:11:03;7.40;95.30
13322;DHT22;6730;46.248;6.930;2023-02-12T16:13:57;7.50;95.10
13322;DHT22;6730;46.248;6.930;2023-02-12T16:16:27;7.10;95.30
13322;DHT22;6730;46.248;6.930;2023-02-12T16:27:32;6.90;95.50
13322;DHT22;6730;46.248;6.930;2023-02-12T16:32:51;6.70;95.60
13322;DHT22;6730;46.248;6.930;2023-02-12T16:37:46;6.30;96.10
13322;DHT22;6730;46.248;6.930;2023-02-12T16:42:59;6.30;96.10
13322;DHT22;6730;46.248;6.930;2023-02-12T16:47:54;6.20;96.10
13322;DHT22;6730;46.248;6.930;2023-02-12T16:50:21;6.20;96.20
13322;DHT22;6730;46.248;6.930;2023-02-12T16:55:47;6.50;95.80
13322;DHT22;6730;46.248;6.930;2023-02-12T16:58:12;6.20;96.00
13322;DHT22;6730;46.248;6.930;2023-02-12T17:00:38;5.90;96.20
13322;DHT22;6730;46.248;6.930;2023-02-12T17:03:04;5.80;96.30
13322;DHT22;6730;46.248;6.930;2023-02-12T17:05:29;5.80;96.50
13322;DHT22;6730;46.248;6.930;2023-02-12T17:07:55;5.80;96.50
13322;DHT22;6730;46.248;6.930;2023-02-12T17:10:21;5.70;96.40
13322;DHT22;6730;46.248;6.930;2023-02-12T17:12:49;5.60;96.60
13322;DHT22;6730;46.248;6.930;2023-02-12T17:15:32;5.60;96.50
13322;DHT22;6730;46.248;6.930;2023-02-12T17:17:58;5.50;96.60
13322;DHT22;6730;46.248;6.930;2023-02-12T17:20:24;5.50;96.50
13322;DHT22;6730;46.248;6.930;2023-02-12T17:22:54;5.50;96.60
13322;DHT22;6730;46.248;6.930;2023-02-12T17:25:21;5.50;96.70
13322;DHT22;6730;46.248;6.930;2023-02-12T17:27:47;5.50;96.60
13322;DHT22;6730;46.248;6.930;2023-02-12T17:30:19;5.90;96.40
13322;DHT22;6730;46.248;6.930;2023-02-12T17:32:48;5.90;96.10
13322;DHT22;6730;46.248;6.930;2023-02-12T17:35:15;6.00;96.00
13322;DHT22;6730;46.248;6.930;2023-02-12T17:37:40;5.70;96.40
13322;DHT22;6730;46.248;6.930;2023-02-12T17:40:07;5.60;96.60
13322;DHT22;6730;46.248;6.930;2023-02-12T17:42:33;5.90;96.20
13322;DHT22;6730;46.248;6.930;2023-02-12T17:44:58;6.20;95.80
13322;DHT22;6730;46.248;6.930;2023-02-12T17:47:24;6.10;95.80
13322;DHT22;6730;46.248;6.930;2023-02-12T17:49:51;5.60;96.30
13322;DHT22;6730;46.248;6.930;2023-02-12T17:52:17;5.50;96.60
13322;DHT22;6730;46.248;6.930;2023-02-12T17:54:46;5.50;96.70
13322;DHT22;6730;46.248;6.930;2023-02-12T17:57:12;5.40;96.60
13322;DHT22;6730;46.248;6.930;2023-02-12T17:59:40;5.40;96.80
13322;DHT22;6730;46.248;6.930;2023-02-12T18:02:06;5.30;96.80
13322;DHT22;6730;46.248;6.930;2023-02-12T18:04:32;5.40;96.60
13322;DHT22;6730;46.248;6.930;2023-02-12T18:07:02;5.40;96.70
13322;DHT22;6730;46.248;6.930;2023-02-12T18:09:28;5.30;96.70
13322;DHT22;6730;46.248;6.930;2023-02-12T18:11:54;5.20;96.90
13322;DHT22;6730;46.248;6.930;2023-02-12T18:14:19;5.10;97.10
13322;DHT22;6730;46.248;6.930;2023-02-12T18:16:45;4.90;97.30
13322;DHT22;6730;46.248;6.930;2023-02-12T18:19:11;4.90;97.50
13322;DHT22;6730;46.248;6.930;2023-02-12T18:21:37;4.90;97.60
13322;DHT22;6730;46.248;6.930;2023-02-12T18:24:03;4.80;97.60
13322;DHT22;6730;46.248;6.930;2023-02-12T18:26:29;4.80;97.70
13322;DHT22;6730;46.248;6.930;2023-02-12T18:28:56;4.80;97.80
13322;DHT22;6730;46.248;6.930;2023-02-12T18:31:23;5.00;97.60
13322;DHT22;6730;46.248;6.930;2023-02-12T18:33:49;4.90;97.70
13322;DHT22;6730;46.248;6.930;2023-02-12T18:36:16;5.10;97.40
13322;DHT22;6730;46.248;6.930;2023-02-12T18:38:44;5.20;97.30
13322;DHT22;6730;46.248;6.930;2023-02-12T18:41:15;5.20;97.40
13322;DHT22;6730;46.248;6.930;2023-02-12T18:43:41;5.20;97.20
13322;DHT22;6730;46.248;6.930;2023-02-12T18:46:30;5.00;97.50
13322;DHT22;6730;46.248;6.930;2023-02-12T18:48:55;4.90;97.80
13322;DHT22;6730;46.248;6.930;2023-02-12T18:51:26;4.90;97.90
13322;DHT22;6730;46.248;6.930;2023-02-12T18:53:59;4.90;98.30
13322;DHT22;6730;46.248;6.930;2023-02-12T18:56:27;4.80;98.30
13322;DHT22;6730;46.248;6.930;2023-02-12T18:58:57;4.70;98.40
13322;DHT22;6730;46.248;6.930;2023-02-12T19:01:24;4.60;98.40
13322;DHT22;6730;46.248;6.930;2023-02-12T19:03:53;4.60;98.40
13322;DHT22;6730;46.248;6.930;2023-02-12T19:06:20;4.70;98.20
13322;DHT22;6730;46.248;6.930;2023-02-12T19:08:45;4.70;98.20
13322;DHT22;6730;46.248;6.930;2023-02-12T19:11:11;4.60;98.20
13322;DHT22;6730;46.248;6.930;2023-02-12T19:13:37;4.70;98.00
13322;DHT22;6730;46.248;6.930;2023-02-12T19:16:11;4.60;98.10
13322;DHT22;6730;46.248;6.930;2023-02-12T19:18:37;4.60;98.10
13322;DHT22;6730;46.248;6.930;2023-02-12T19:21:09;4.50;98.30